Time;durP1;ratioP1;P1;durP2;ratioP2;P2;SDS_P1;SDS_P2;PMS_P1;PMS_P2;Temp;Humidity;BMP_temperature;BMP_pressure;BME280_temperature;BME280_humidity;BME280_pressure;Samples;Min_cycle;Max_cycle;Signal;HPM_P1;HPM_P2
2022/01/31 00:02:16;;;;;;;0.00;0.00;;;;;23.30;100041.00;;;;5086567;28;20044;-75
2022/01/31 00:04:45;;;;;;;0.00;0.00;;;;;23.30;100033.00;;;;5086358;28;20161;-74
2022/01/31 00:07:15;;;;;;;0.00;0.00;;;;;23.10;100033.00;;;;5086141;28;20055;-75
2022/01/31 00:09:45;;;;;;;0.00;0.00;;;;;22.90;100019.00;;;;5086159;28;20078;-76
2022/01/31 00:12:18;;;;;;;0.00;0.00;;;;;22.80;100016.00;;;;5086250;28;20058;-75
2022/01/31 00:14:50;;;;;;;0.00;0.00;;;;;22.80;100033.00;;;;5087665;28;20422;-75
2022/01/31 00:17:20;;;;;;;0.00;0.00;;;;;22.60;100015.00;;;;5086386;28;20159;-76
2022/01/31 00:19:49;;;;;;;0.00;0.00;;;;;22.60;100001.00;;;;5085489;28;20055;-77
2022/01/31 00:22:19;;;;;;;0.00;0.00;;;;;22.70;100014.00;;;;5085930;28;20048;-76
2022/01/31 00:24:49;;;;;;;0.00;0.00;;;;;22.90;99999.00;;;;5086401;28;20048;-75
2022/01/31 00:27:18;;;;;;;0.00;0.00;;;;;22.80;100021.00;;;;5086023;28;20044;-77
2022/01/31 00:29:48;;;;;;;0.00;0.00;;;;;22.80;100019.00;;;;5086166;28;20044;-76
2022/01/31 00:32:17;;;;;;;0.00;0.00;;;;;23.00;100031.00;;;;5084568;28;20143;-77
2022/01/31 00:34:46;;;;;;;0.00;0.00;;;;;22.90;100019.00;;;;5087662;28;20036;-76
2022/01/31 00:37:16;;;;;;;0.00;0.00;;;;;22.70;100016.00;;;;5090349;28;20051;-76
2022/01/31 00:39:45;;;;;;;0.00;0.00;;;;;22.50;99998.00;;;;5090772;28;20042;-76
2022/01/31 00:42:15;;;;;;;0.00;0.00;;;;;22.60;100014.00;;;;5090061;28;20097;-77
2022/01/31 00:44:51;;;;;;;1.35;0.98;;;;;22.60;100017.00;;;;5089633;28;20152;-76
2022/01/31 00:47:30;;;;;;;0.00;0.00;;;;;22.70;100025.00;;;;5090178;28;20047;-76
2022/01/31 00:52:35;;;;;;;0.00;0.00;;;;;22.70;100033.00;;;;5089842;28;20040;-76
2022/01/31 00:55:06;;;;;;;;;;;;;22.70;100037.00;;;;5088556;28;20075;-76
2022/01/31 00:57:35;;;;;;;0.10;0.10;;;;;22.70;100018.00;;;;5090009;28;19935;-74
2022/01/31 01:00:07;;;;;;;0.00;0.00;;;;;22.60;100039.00;;;;5088848;28;20036;-75
2022/01/31 01:02:37;;;;;;;0.15;0.15;;;;;22.60;100033.00;;;;5090287;28;20119;-75
2022/01/31 01:05:08;;;;;;;0.00;0.00;;;;;22.40;100044.00;;;;5089105;28;20046;-75
2022/01/31 01:07:38;;;;;;;0.65;0.20;;;;;22.30;100033.00;;;;5089048;28;20066;-71
2022/01/31 01:10:07;;;;;;;0.03;0.03;;;;;22.40;100033.00;;;;5089879;28;20065;-73
2022/01/31 01:12:37;;;;;;;0.00;0.00;;;;;22.20;100033.00;;;;5087437;28;20434;-71
2022/01/31 01:15:07;;;;;;;0.00;0.00;;;;;22.10;100041.00;;;;5088121;28;20051;-72
2022/01/31 01:17:38;;;;;;;0.17;0.10;;;;;22.10;100036.00;;;;5087734;28;20055;-74
2022/01/31 01:20:08;;;;;;;0.00;0.00;;;;;22.10;100047.00;;;;5088854;28;20126;-71
2022/01/31 01:22:38;;;;;;;;;;;;;22.10;100047.00;;;;5090182;28;20048;-72
2022/01/31 01:25:09;;;;;;;0.00;0.00;;;;;22.00;100045.00;;;;5087853;28;19974;-71
2022/01/31 01:27:41;;;;;;;0.00;0.00;;;;;21.90;100044.00;;;;5088148;28;20138;-72
2022/01/31 01:30:13;;;;;;;0.00;0.00;;;;;22.00;100054.00;;;;5087442;28;20051;-74
2022/01/31 01:33:19;;;;;;;0.00;0.00;;;;;21.90;100048.00;;;;5087148;28;20056;-74
2022/01/31 01:35:40;;;;;;;0.00;0.00;;;;;21.70;100041.00;;;;5085400;28;20048;-72
2022/01/31 01:38:10;;;;;;;0.00;0.00;;;;;21.60;100033.00;;;;5089306;28;20047;-72
2022/01/31 01:40:41;;;;;;;0.00;0.00;;;;;21.50;100045.00;;;;5088976;28;20047;-75
2022/01/31 01:43:14;;;;;;;0.00;0.00;;;;;21.50;100042.00;;;;5088833;28;20044;-73
2022/01/31 01:45:44;;;;;;;;;;;;;21.50;100037.00;;;;5087598;28;20080;-71
2022/01/31 01:48:17;;;;;;;0.00;0.00;;;;;21.50;100027.00;;;;5087793;28;19924;-74
2022/01/31 01:50:49;;;;;;;0.00;0.00;;;;;21.40;100052.00;;;;5086634;28;20086;-75
2022/01/31 01:53:19;;;;;;;0.00;0.00;;;;;21.40;100032.00;;;;5086612;28;20533;-74
2022/01/31 01:55:52;;;;;;;0.00;0.00;;;;;21.40;100045.00;;;;5086265;28;20051;-75
2022/01/31 01:58:29;;;;;;;0.00;0.00;;;;;21.60;100045.00;;;;5087380;28;20048;-74
2022/01/31 02:01:01;;;;;;;0.00;0.00;;;;;21.60;100019.00;;;;5086889;28;20051;-74
2022/01/31 02:04:07;;;;;;;0.22;0.22;;;;;21.40;100016.00;;;;5025933;28;20057;-74
2022/01/31 02:06:41;;;;;;;0.00;0.00;;;;;21.30;100033.00;;;;5074050;28;20097;-75
2022/01/31 02:09:11;;;;;;;0.00;0.00;;;;;21.20;100018.00;;;;5086659;28;20135;-75
2022/01/31 02:11:40;;;;;;;0.00;0.00;;;;;21.20;100008.00;;;;5088606;28;20052;-75
2022/01/31 02:14:10;;;;;;;0.00;0.00;;;;;21.10;100013.00;;;;5086767;28;20141;-75
2022/01/31 02:17:17;;;;;;;0.00;0.00;;;;;21.00;100010.00;;;;5088159;28;20051;-74
2022/01/31 02:20:07;;;;;;;0.00;0.00;;;;;20.90;100003.00;;;;5086597;28;20155;-75
2022/01/31 02:22:41;;;;;;;0.00;0.00;;;;;20.90;100019.00;;;;5086182;28;20139;-74
2022/01/31 02:25:27;;;;;;;0.00;0.00;;;;;20.70;100015.00;;;;5087059;28;20062;-75
2022/01/31 02:28:26;;;;;;;0.00;0.00;;;;;20.90;100013.00;;;;5087585;28;20055;-75
2022/01/31 02:30:56;;;;;;;0.00;0.00;;;;;20.90;100013.00;;;;5086010;28;20063;-76
2022/01/31 02:33:27;;;;;;;0.00;0.00;;;;;20.90;100001.00;;;;5086567;28;20079;-75
2022/01/31 02:36:01;;;;;;;;;;;;;20.90;100014.00;;;;5087453;28;20040;-75
2022/01/31 02:38:32;;;;;;;0.00;0.00;;;;;20.70;100015.00;;;;5087991;28;19930;-76
2022/01/31 02:41:04;;;;;;;0.20;0.20;;;;;20.60;99999.00;;;;5086158;28;20105;-75
2022/01/31 02:43:35;;;;;;;0.00;0.00;;;;;20.50;99986.00;;;;5086072;28;20044;-75
2022/01/31 02:46:10;;;;;;;0.05;0.03;;;;;20.40;99998.00;;;;5086190;28;20910;-75
2022/01/31 02:48:40;;;;;;;0.00;0.00;;;;;20.40;100002.00;;;;5086250;28;20048;-75
2022/01/31 02:51:10;;;;;;;0.00;0.00;;;;;20.20;99994.00;;;;5087512;28;20048;-75
2022/01/31 02:53:43;;;;;;;0.00;0.00;;;;;20.10;99988.00;;;;5086202;28;20052;-76
2022/01/31 02:56:13;;;;;;;0.00;0.00;;;;;20.10;99976.00;;;;5085947;28;20048;-75
2022/01/31 02:58:42;;;;;;;0.00;0.00;;;;;20.00;99967.00;;;;5087636;28;20043;-76
2022/01/31 03:01:14;;;;;;;0.00;0.00;;;;;20.00;99969.00;;;;5086902;28;20047;-75
2022/01/31 03:03:45;;;;;;;0.10;0.10;;;;;19.90;99972.00;;;;5085845;28;20449;-75
2022/01/31 03:06:14;;;;;;;0.00;0.00;;;;;19.90;99985.00;;;;5085759;28;20065;-76
2022/01/31 03:08:44;;;;;;;0.03;0.03;;;;;20.20;99962.00;;;;5085704;28;20106;-76
2022/01/31 03:11:29;;;;;;;0.00;0.00;;;;;20.20;99976.00;;;;5085709;28;20590;-75
2022/01/31 03:14:11;;;;;;;0.00;0.00;;;;;20.10;99964.00;;;;5086164;28;20077;-76
2022/01/31 03:16:47;;;;;;;0.00;0.00;;;;;20.10;99964.00;;;;5085354;28;20192;-76
2022/01/31 03:19:20;;;;;;;0.00;0.00;;;;;20.00;99955.00;;;;5087319;28;20495;-75
2022/01/31 03:21:55;;;;;;;0.00;0.00;;;;;19.90;99974.00;;;;5085328;28;20051;-75
2022/01/31 03:24:25;;;;;;;0.00;0.00;;;;;19.80;99969.00;;;;5085889;28;20052;-75
2022/01/31 03:26:54;;;;;;;0.00;0.00;;;;;19.80;99958.00;;;;5086840;28;20074;-75
2022/01/31 03:29:23;;;;;;;0.00;0.00;;;;;19.80;99956.00;;;;5085675;28;20526;-75
2022/01/31 03:31:53;;;;;;;0.00;0.00;;;;;19.80;99967.00;;;;5085786;28;20074;-76
2022/01/31 03:34:23;;;;;;;0.00;0.00;;;;;19.80;99949.00;;;;5085488;28;20055;-76
2022/01/31 03:36:52;;;;;;;0.00;0.00;;;;;19.80;99963.00;;;;5085237;28;20412;-75
2022/01/31 03:39:25;;;;;;;0.00;0.00;;;;;19.80;99962.00;;;;5085345;28;20075;-76
2022/01/31 03:41:55;;;;;;;0.20;0.20;;;;;19.60;99952.00;;;;5086781;28;20040;-76
2022/01/31 03:44:24;;;;;;;0.10;0.08;;;;;19.60;99963.00;;;;5087326;28;20090;-75
2022/01/31 03:46:56;;;;;;;0.00;0.00;;;;;19.60;99943.00;;;;5085757;28;20055;-76
2022/01/31 03:49:26;;;;;;;0.00;0.00;;;;;19.50;99959.00;;;;5085571;28;20142;-75
2022/01/31 03:52:04;;;;;;;0.00;0.00;;;;;19.40;99956.00;;;;5085070;28;20067;-75
2022/01/31 03:54:41;;;;;;;0.00;0.00;;;;;19.40;99944.00;;;;5085434;28;20401;-75
2022/01/31 03:57:11;;;;;;;0.00;0.00;;;;;19.30;99945.00;;;;5085021;28;20472;-76
2022/01/31 04:00:06;;;;;;;0.00;0.00;;;;;19.20;99931.00;;;;5084999;28;20188;-75
2022/01/31 04:02:43;;;;;;;0.00;0.00;;;;;19.20;99940.00;;;;5086539;28;20091;-76
2022/01/31 04:05:14;;;;;;;0.00;0.00;;;;;19.20;99925.00;;;;5086448;28;20052;-75
2022/01/31 04:07:43;;;;;;;0.00;0.00;;;;;19.20;99940.00;;;;5086578;28;20056;-76
2022/01/31 04:10:12;;;;;;;0.00;0.00;;;;;19.10;99920.00;;;;5089424;28;20044;-75
2022/01/31 04:12:41;;;;;;;0.20;0.20;;;;;19.10;99933.00;;;;5091170;28;20052;-75
2022/01/31 04:15:10;;;;;;;0.10;0.10;;;;;19.10;99928.00;;;;5090585;28;20044;-75
2022/01/31 04:17:40;;;;;;;0.00;0.00;;;;;19.10;99926.00;;;;5090627;28;20051;-75
2022/01/31 04:20:10;;;;;;;0.10;0.10;;;;;19.00;99934.00;;;;5090790;28;20052;-75
2022/01/31 04:22:47;;;;;;;0.03;0.03;;;;;18.90;99912.00;;;;5090837;28;20052;-75
2022/01/31 04:25:29;;;;;;;0.20;0.20;;;;;19.00;99915.00;;;;5090476;28;20083;-75
2022/01/31 04:28:04;;;;;;;0.00;0.00;;;;;18.90;99925.00;;;;5090489;28;20136;-75
2022/01/31 04:30:45;;;;;;;0.00;0.00;;;;;18.90;99915.00;;;;5090299;28;20105;-75
2022/01/31 04:33:15;;;;;;;0.00;0.00;;;;;18.90;99923.00;;;;5090377;28;20167;-75
2022/01/31 04:35:44;;;;;;;0.00;0.00;;;;;18.90;99911.00;;;;5090069;28;20400;-75
2022/01/31 04:38:14;;;;;;;0.20;0.20;;;;;18.80;99928.00;;;;5090530;28;20147;-75
2022/01/31 04:40:43;;;;;;;0.00;0.00;;;;;18.80;99925.00;;;;5090500;28;20445;-76
2022/01/31 04:43:13;;;;;;;0.38;0.38;;;;;18.80;99921.00;;;;5090697;28;20596;-76
2022/01/31 04:45:47;;;;;;;0.00;0.00;;;;;18.80;99946.00;;;;5090719;28;20688;-76
2022/01/31 04:48:20;;;;;;;0.00;0.00;;;;;18.90;99912.00;;;;5090085;28;20056;-76
2022/01/31 04:50:50;;;;;;;0.00;0.00;;;;;18.80;99930.00;;;;5089771;28;20052;-76
2022/01/31 04:53:19;;;;;;;0.60;0.22;;;;;18.80;99930.00;;;;5089967;28;20058;-76
2022/01/31 04:55:48;;;;;;;0.00;0.00;;;;;18.80;99919.00;;;;5090036;28;20510;-76
2022/01/31 04:58:21;;;;;;;0.00;0.00;;;;;18.70;99913.00;;;;5090538;28;20579;-76
2022/01/31 05:00:51;;;;;;;0.00;0.00;;;;;18.80;99910.00;;;;5089467;28;20067;-76
2022/01/31 05:03:21;;;;;;;0.40;0.40;;;;;18.90;99899.00;;;;5090020;28;20091;-77
2022/01/31 05:05:51;;;;;;;0.00;0.00;;;;;19.00;99897.00;;;;5090069;28;20048;-76
2022/01/31 05:08:25;;;;;;;0.00;0.00;;;;;18.90;99901.00;;;;5089468;28;20055;-76
2022/01/31 05:10:55;;;;;;;0.00;0.00;;;;;18.80;99914.00;;;;5090334;28;20528;-76
2022/01/31 05:13:25;;;;;;;0.00;0.00;;;;;18.90;99907.00;;;;5089272;28;20564;-76
2022/01/31 05:15:55;;;;;;;0.00;0.00;;;;;18.90;99902.00;;;;5089749;28;20424;-76
2022/01/31 05:18:24;;;;;;;0.00;0.00;;;;;18.90;99898.00;;;;5090259;28;20177;-76
2022/01/31 05:20:53;;;;;;;0.00;0.00;;;;;18.70;99896.00;;;;5089173;28;20040;-76
2022/01/31 05:23:23;;;;;;;0.00;0.00;;;;;18.70;99903.00;;;;5089918;28;20060;-76
2022/01/31 05:25:52;;;;;;;0.00;0.00;;;;;18.70;99901.00;;;;5089212;28;20080;-76
2022/01/31 05:28:21;;;;;;;0.00;0.00;;;;;18.70;99897.00;;;;5089625;28;20132;-76
2022/01/31 05:30:50;;;;;;;0.08;0.08;;;;;18.70;99899.00;;;;5089815;28;20083;-76
2022/01/31 05:33:19;;;;;;;0.00;0.00;;;;;18.60;99891.00;;;;5088645;28;20052;-76
2022/01/31 05:35:48;;;;;;;0.00;0.00;;;;;18.60;99887.00;;;;5085828;28;20097;-76
2022/01/31 05:38:18;;;;;;;0.00;0.00;;;;;18.60;99903.00;;;;5085698;28;20568;-76
2022/01/31 05:40:47;;;;;;;0.00;0.00;;;;;18.60;99880.00;;;;5086031;28;20070;-76
2022/01/31 05:43:19;;;;;;;0.00;0.00;;;;;18.50;99890.00;;;;5089239;28;20127;-76
2022/01/31 05:45:48;;;;;;;0.00;0.00;;;;;18.50;99900.00;;;;5089322;28;20054;-76
2022/01/31 05:48:19;;;;;;;0.00;0.00;;;;;18.40;99882.00;;;;5089200;28;20060;-76
2022/01/31 05:50:49;;;;;;;0.00;0.00;;;;;18.40;99887.00;;;;5088353;28;20048;-76
2022/01/31 05:53:18;;;;;;;0.00;0.00;;;;;18.40;99895.00;;;;5088834;28;20449;-76
2022/01/31 05:55:47;;;;;;;0.00;0.00;;;;;18.40;99877.00;;;;5087124;28;20083;-76
2022/01/31 05:58:16;;;;;;;0.00;0.00;;;;;18.40;99883.00;;;;5089342;28;20059;-76
2022/01/31 06:00:46;;;;;;;0.00;0.00;;;;;18.40;99883.00;;;;5088269;28;20111;-76
2022/01/31 06:03:15;;;;;;;0.00;0.00;;;;;18.40;99882.00;;;;5088596;28;20072;-76
2022/01/31 06:05:44;;;;;;;0.00;0.00;;;;;18.40;99875.00;;;;5088653;28;20482;-76
2022/01/31 06:08:14;;;;;;;0.00;0.00;;;;;18.30;99883.00;;;;5089206;28;20052;-76
2022/01/31 06:10:45;;;;;;;0.00;0.00;;;;;18.20;99884.00;;;;5088812;28;20048;-76
2022/01/31 06:13:25;;;;;;;0.00;0.00;;;;;18.20;99868.00;;;;5088272;28;20461;-76
2022/01/31 06:15:55;;;;;;;0.00;0.00;;;;;18.30;99885.00;;;;5087782;28;20048;-76
2022/01/31 06:18:25;;;;;;;0.00;0.00;;;;;18.30;99876.00;;;;5087811;28;20514;-76
2022/01/31 06:20:55;;;;;;;0.00;0.00;;;;;18.30;99891.00;;;;5088546;28;20538;-76
2022/01/31 06:23:24;;;;;;;0.00;0.00;;;;;18.30;99877.00;;;;5087708;28;20048;-76
2022/01/31 06:25:53;;;;;;;0.00;0.00;;;;;18.30;99894.00;;;;5088623;28;20055;-76
2022/01/31 06:28:24;;;;;;;0.00;0.00;;;;;18.30;99874.00;;;;5086910;28;20116;-76
2022/01/31 06:30:59;;;;;;;0.00;0.00;;;;;18.30;99874.00;;;;5086914;28;20093;-76
2022/01/31 06:33:29;;;;;;;0.00;0.00;;;;;18.30;99883.00;;;;5086154;28;20400;-76
2022/01/31 06:36:00;;;;;;;0.00;0.00;;;;;18.30;99877.00;;;;5088111;28;20675;-76
2022/01/31 06:38:30;;;;;;;0.00;0.00;;;;;18.20;99867.00;;;;5088249;28;20055;-76
2022/01/31 06:40:59;;;;;;;0.00;0.00;;;;;18.20;99875.00;;;;5087708;28;20415;-76
2022/01/31 06:43:29;;;;;;;0.00;0.00;;;;;18.20;99870.00;;;;5087962;28;20043;-76
2022/01/31 06:45:58;;;;;;;0.00;0.00;;;;;18.10;99873.00;;;;5088058;28;20052;-76
2022/01/31 06:48:28;;;;;;;0.00;0.00;;;;;18.00;99865.00;;;;5087379;28;20593;-77
2022/01/31 06:50:57;;;;;;;0.00;0.00;;;;;18.00;99867.00;;;;5087492;28;20040;-76
2022/01/31 06:53:28;;;;;;;0.00;0.00;;;;;18.00;99858.00;;;;5087089;28;20105;-76
2022/01/31 06:55:59;;;;;;;0.00;0.00;;;;;18.00;99870.00;;;;5088290;28;20047;-76
2022/01/31 06:58:28;;;;;;;0.00;0.00;;;;;18.00;99871.00;;;;5087914;28;20094;-76
2022/01/31 07:00:58;;;;;;;0.00;0.00;;;;;18.00;99873.00;;;;5086147;28;20047;-74
2022/01/31 07:03:28;;;;;;;0.00;0.00;;;;;18.00;99869.00;;;;5087341;28;20036;-76
2022/01/31 07:05:57;;;;;;;0.00;0.00;;;;;17.90;99881.00;;;;5085655;28;20518;-76
2022/01/31 07:08:27;;;;;;;0.00;0.00;;;;;17.90;99872.00;;;;5086757;28;20052;-77
2022/01/31 07:10:56;;;;;;;0.00;0.00;;;;;18.00;99883.00;;;;5086222;28;20059;-77
2022/01/31 07:16:06;;;;;;;0.00;0.00;;;;;17.90;99869.00;;;;5087297;28;20048;-76
2022/01/31 07:18:37;;;;;;;0.00;0.00;;;;;18.00;99879.00;;;;5088176;28;20055;-76
2022/01/31 07:21:11;;;;;;;0.00;0.00;;;;;18.00;99877.00;;;;5087336;28;20040;-76
2022/01/31 07:24:03;;;;;;;0.00;0.00;;;;;17.90;99876.00;;;;5086917;28;20071;-76
2022/01/31 07:26:35;;;;;;;0.00;0.00;;;;;17.90;99862.00;;;;5086586;28;20044;-76
2022/01/31 07:29:04;;;;;;;0.00;0.00;;;;;18.00;99865.00;;;;5087026;28;20518;-76
2022/01/31 07:31:34;;;;;;;0.00;0.00;;;;;17.90;99863.00;;;;5087045;28;20043;-76
2022/01/31 07:34:03;;;;;;;0.00;0.00;;;;;17.90;99879.00;;;;5087283;28;20071;-76
2022/01/31 07:36:33;;;;;;;0.00;0.00;;;;;17.90;99873.00;;;;5087489;28;20424;-76
2022/01/31 07:39:04;;;;;;;0.00;0.00;;;;;17.90;99870.00;;;;5087283;28;20036;-76
2022/01/31 07:41:39;;;;;;;0.00;0.00;;;;;17.90;99880.00;;;;5086887;28;20040;-76
2022/01/31 07:44:09;;;;;;;0.00;0.00;;;;;18.00;99886.00;;;;5086706;28;20049;-76
2022/01/31 07:46:41;;;;;;;0.00;0.00;;;;;18.00;99873.00;;;;5085560;28;20070;-76
2022/01/31 07:49:10;;;;;;;0.00;0.00;;;;;18.00;99888.00;;;;5086619;28;20040;-76
2022/01/31 07:51:41;;;;;;;0.00;0.00;;;;;18.00;99889.00;;;;5086576;28;20040;-76
2022/01/31 07:54:11;;;;;;;0.00;0.00;;;;;18.00;99884.00;;;;5087288;28;20553;-76
2022/01/31 07:56:40;;;;;;;0.00;0.00;;;;;18.00;99886.00;;;;5085649;28;20043;-76
2022/01/31 07:59:10;;;;;;;0.00;0.00;;;;;18.00;99903.00;;;;5085120;28;20519;-76
2022/01/31 08:01:39;;;;;;;0.00;0.00;;;;;18.10;99899.00;;;;5086340;28;20411;-76
2022/01/31 08:04:10;;;;;;;0.00;0.00;;;;;18.10;99908.00;;;;5086622;28;20067;-75
2022/01/31 08:06:39;;;;;;;0.00;0.00;;;;;18.00;99907.00;;;;5086606;28;20101;-77
2022/01/31 08:09:09;;;;;;;0.00;0.00;;;;;18.00;99903.00;;;;5086358;28;20036;-75
2022/01/31 08:11:38;;;;;;;0.00;0.00;;;;;18.00;99918.00;;;;5085216;28;20514;-75
2022/01/31 08:14:10;;;;;;;0.00;0.00;;;;;18.00;99910.00;;;;5086366;28;20048;-75
2022/01/31 08:16:39;;;;;;;0.00;0.00;;;;;18.00;99897.00;;;;5086519;28;20594;-75
2022/01/31 08:19:09;;;;;;;0.00;0.00;;;;;18.00;99915.00;;;;5086529;28;20601;-75
2022/01/31 08:21:59;;;;;;;0.00;0.00;;;;;18.00;99910.00;;;;5085775;28;20580;-75
2022/01/31 08:24:29;;;;;;;0.00;0.00;;;;;18.00;99922.00;;;;5087166;28;20036;-75
2022/01/31 08:26:59;;;;;;;0.00;0.00;;;;;18.00;99917.00;;;;5086274;28;20495;-75
2022/01/31 08:29:32;;;;;;;0.00;0.00;;;;;18.00;99919.00;;;;5086324;28;20044;-75
2022/01/31 08:32:09;;;;;;;0.00;0.00;;;;;17.90;99904.00;;;;5086613;28;20036;-75
2022/01/31 08:37:27;;;;;;;0.00;0.00;;;;;17.80;99918.00;;;;5086290;28;20082;-75
2022/01/31 08:39:57;;;;;;;0.00;0.00;;;;;17.80;99913.00;;;;5086501;28;20474;-75
2022/01/31 08:42:28;;;;;;;0.00;0.00;;;;;17.80;99908.00;;;;5086427;28;20044;-75
2022/01/31 08:44:58;;;;;;;0.00;0.00;;;;;17.80;99920.00;;;;5086175;28;20051;-75
2022/01/31 08:47:29;;;;;;;0.00;0.00;;;;;17.80;99905.00;;;;5084725;28;20640;-75
2022/01/31 08:49:58;;;;;;;0.00;0.00;;;;;17.80;99922.00;;;;5081684;28;20054;-75
2022/01/31 08:52:28;;;;;;;0.00;0.00;;;;;17.80;99913.00;;;;5085034;28;20040;-75
2022/01/31 08:54:57;;;;;;;0.00;0.00;;;;;17.80;99907.00;;;;5085540;28;20062;-77
2022/01/31 08:57:27;;;;;;;0.00;0.00;;;;;17.80;99912.00;;;;5089247;28;20048;-75
2022/01/31 08:59:57;;;;;;;0.10;0.10;;;;;17.80;99903.00;;;;5090040;28;20441;-75
2022/01/31 09:02:37;;;;;;;0.00;0.00;;;;;17.80;99918.00;;;;5089403;28;20039;-75
2022/01/31 09:05:08;;;;;;;0.00;0.00;;;;;17.80;99917.00;;;;5089318;28;20499;-76
2022/01/31 09:07:37;;;;;;;0.00;0.00;;;;;17.80;99910.00;;;;5089687;28;20052;-76
2022/01/31 09:10:07;;;;;;;0.00;0.00;;;;;17.80;99933.00;;;;5090516;28;20044;-76
2022/01/31 09:12:37;;;;;;;0.00;0.00;;;;;17.80;99910.00;;;;5089426;28;20056;-75
2022/01/31 09:15:07;;;;;;;0.00;0.00;;;;;17.90;99921.00;;;;5089331;28;20048;-76
2022/01/31 09:17:37;;;;;;;0.00;0.00;;;;;17.90;99922.00;;;;5089863;28;20082;-76
2022/01/31 09:20:07;;;;;;;0.00;0.00;;;;;18.00;99933.00;;;;5089122;28;20434;-75
2022/01/31 09:22:38;;;;;;;0.00;0.00;;;;;18.00;99938.00;;;;5089366;28;20040;-76
2022/01/31 09:25:08;;;;;;;0.00;0.00;;;;;17.90;99932.00;;;;5089261;28;20102;-76
2022/01/31 09:27:37;;;;;;;0.00;0.00;;;;;18.00;99937.00;;;;5088298;28;20039;-76
2022/01/31 09:30:09;;;;;;;0.00;0.00;;;;;18.10;99937.00;;;;5089180;28;20174;-76
2022/01/31 09:32:39;;;;;;;0.00;0.00;;;;;18.20;99939.00;;;;5089264;28;20123;-76
2022/01/31 09:35:08;;;;;;;0.00;0.00;;;;;18.20;99926.00;;;;5089398;28;20535;-76
2022/01/31 09:37:38;;;;;;;0.00;0.00;;;;;18.30;99927.00;;;;5089250;28;20044;-76
2022/01/31 09:40:08;;;;;;;0.00;0.00;;;;;18.40;99919.00;;;;5088449;28;20955;-75
2022/01/31 09:42:51;;;;;;;0.00;0.00;;;;;18.40;99923.00;;;;5088485;28;20059;-77
2022/01/31 09:45:36;;;;;;;0.00;0.00;;;;;18.60;99945.00;;;;5088689;28;20115;-76
2022/01/31 09:50:54;;;;;;;0.00;0.00;;;;;18.90;99943.00;;;;5089235;28;20044;-76
2022/01/31 09:53:24;;;;;;;0.00;0.00;;;;;19.00;99924.00;;;;5087554;28;20048;-76
2022/01/31 09:55:54;;;;;;;0.00;0.00;;;;;19.30;99946.00;;;;5089090;28;20050;-75
2022/01/31 09:58:26;;;;;;;0.00;0.00;;;;;19.50;99936.00;;;;5089468;28;20043;-76
2022/01/31 10:01:17;;;;;;;0.00;0.00;;;;;19.60;99915.00;;;;5087815;28;20503;-76
2022/01/31 10:04:00;;;;;;;0.00;0.00;;;;;20.60;99895.00;;;;5088548;28;20117;-76
2022/01/31 10:06:38;;;;;;;0.00;0.00;;;;;20.90;99924.00;;;;5088256;28;20093;-76
2022/01/31 10:09:20;;;;;;;0.00;0.00;;;;;20.60;99931.00;;;;5088355;28;20047;-76
2022/01/31 10:12:04;;;;;;;0.00;0.00;;;;;20.70;99937.00;;;;5088489;28;20040;-76
2022/01/31 10:17:25;;;;;;;0.00;0.00;;;;;21.40;99923.00;;;;5088534;28;20094;-76
2022/01/31 10:20:19;;;;;;;0.00;0.00;;;;;21.70;99902.00;;;;5088785;28;20568;-76
2022/01/31 10:22:49;;;;;;;0.00;0.00;;;;;23.90;99851.00;;;;5088383;28;20048;-76
2022/01/31 10:25:21;;;;;;;0.00;0.00;;;;;22.80;99935.00;;;;5088159;28;20507;-76
2022/01/31 10:28:17;;;;;;;0.00;0.00;;;;;22.00;99952.00;;;;5087518;28;20043;-76
2022/01/31 10:30:51;;;;;;;0.10;0.10;;;;;21.80;99932.00;;;;5088323;28;20511;-75
2022/01/31 10:33:25;;;;;;;0.00;0.00;;;;;22.00;99947.00;;;;5088583;28;20048;-75
2022/01/31 10:35:54;;;;;;;0.00;0.00;;;;;23.40;99817.00;;;;5087822;28;20514;-75
2022/01/31 10:38:32;;;;;;;0.00;0.00;;;;;29.30;99717.00;;;;5087633;28;20043;-74
2022/01/31 10:52:33;;;;;;;0.00;0.00;;;;;35.00;99731.00;;;;5087937;28;20097;-77
2022/01/31 10:55:16;;;;;;;0.00;0.00;;;;;35.70;99734.00;;;;5087274;28;20047;-76
2022/01/31 10:58:02;;;;;;;0.00;0.00;;;;;35.00;99778.00;;;;5087236;28;20075;-76
2022/01/31 11:00:40;;;;;;;0.00;0.00;;;;;31.40;99848.00;;;;5087311;28;20048;-76
2022/01/31 11:03:32;;;;;;;0.00;0.00;;;;;30.80;99807.00;;;;5087277;28;20387;-77
2022/01/31 11:06:09;;;;;;;0.00;0.00;;;;;33.10;99762.00;;;;5087823;28;20047;-76
2022/01/31 11:08:40;;;;;;;0.00;0.00;;;;;35.00;99734.00;;;;5087119;28;20076;-77
2022/01/31 11:11:09;;;;;;;;;;;;;35.80;99755.00;;;;5087970;28;20163;-78
2022/01/31 11:13:39;;;;;;;0.00;0.00;;;;;35.90;99742.00;;;;5087411;28;19967;-78
2022/01/31 11:16:12;;;;;;;0.00;0.00;;;;;36.40;99747.00;;;;5086829;28;20134;-78
2022/01/31 11:18:46;;;;;;;0.00;0.00;;;;;37.10;99743.00;;;;5087181;28;20056;-78
2022/01/31 11:21:19;;;;;;;0.00;0.00;;;;;36.90;99755.00;;;;5087065;28;20069;-78
2022/01/31 11:23:51;;;;;;;0.00;0.00;;;;;37.10;99755.00;;;;5087166;28;20040;-77
2022/01/31 11:26:24;;;;;;;0.00;0.00;;;;;36.70;99756.00;;;;5086768;28;20465;-80
2022/01/31 11:28:55;;;;;;;0.00;0.00;;;;;36.90;99742.00;;;;5087577;28;20132;-77
2022/01/31 11:31:26;;;;;;;0.00;0.00;;;;;36.60;99745.00;;;;5087170;28;20090;-78
2022/01/31 11:33:58;;;;;;;;;;;;;36.60;99744.00;;;;5088197;28;20044;-77
2022/01/31 11:36:28;;;;;;;0.00;0.00;;;;;37.30;99738.00;;;;5086727;28;19930;-77
2022/01/31 11:39:00;;;;;;;0.00;0.00;;;;;36.80;99735.00;;;;5086724;28;20756;-77
2022/01/31 11:41:29;;;;;;;0.00;0.00;;;;;36.80;99736.00;;;;5087002;28;20076;-78
2022/01/31 11:44:07;;;;;;;0.00;0.00;;;;;36.60;99745.00;;;;5086529;28;20036;-78
2022/01/31 11:46:40;;;;;;;0.00;0.00;;;;;36.90;99742.00;;;;5086887;28;20047;-79
2022/01/31 11:49:14;;;;;;;0.00;0.00;;;;;36.50;99745.00;;;;5086004;28;20087;-78
2022/01/31 11:52:03;;;;;;;0.00;0.00;;;;;36.20;99746.00;;;;5087365;28;20043;-79
2022/01/31 11:54:44;;;;;;;0.00;0.00;;;;;35.60;99756.00;;;;5086838;28;20044;-77
2022/01/31 11:57:23;;;;;;;0.00;0.00;;;;;35.40;99739.00;;;;5086770;28;20040;-77
2022/01/31 11:59:58;;;;;;;0.00;0.00;;;;;34.70;99739.00;;;;5083995;28;20392;-77
2022/01/31 12:02:32;;;;;;;0.00;0.00;;;;;34.50;99742.00;;;;5085042;28;20067;-77
2022/01/31 12:05:07;;;;;;;16.30;1.77;;;;;33.40;99758.00;;;;5085582;28;20083;-78
2022/01/31 12:07:44;;;;;;;0.63;0.63;;;;;33.30;99860.00;;;;5086386;28;20044;-78
2022/01/31 12:10:33;;;;;;;2.85;1.85;;;;;33.10;99888.00;;;;5086397;28;20067;-77
2022/01/31 12:15:58;;;;;;;0.00;0.00;;;;;31.20;99977.00;;;;5086631;28;20047;-77
2022/01/31 12:24:01;;;;;;;0.38;0.35;;;;;30.40;99888.00;;;;5086409;28;20048;-77
2022/01/31 12:26:49;;;;;;;0.00;0.00;;;;;31.40;99974.00;;;;5086396;28;20040;-78
2022/01/31 12:29:23;;;;;;;0.00;0.00;;;;;31.60;99968.00;;;;5086862;28;20067;-78
2022/01/31 12:31:56;;;;;;;1.85;0.65;;;;;32.00;99943.00;;;;5089814;28;20038;-78
2022/01/31 12:34:34;;;;;;;0.00;0.00;;;;;32.60;99897.00;;;;5090205;28;20159;-77
2022/01/31 12:37:26;;;;;;;0.10;0.10;;;;;31.90;99927.00;;;;5089844;28;20044;-78
2022/01/31 12:40:05;;;;;;;0.00;0.00;;;;;31.60;99909.00;;;;5089739;28;20086;-77
2022/01/31 12:45:39;;;;;;;0.00;0.00;;;;;32.30;99917.00;;;;5090028;28;20120;-77
2022/01/31 12:48:13;;;;;;;0.00;0.00;;;;;32.10;99909.00;;;;5090451;28;20438;-78
2022/01/31 12:50:44;;;;;;;0.52;0.22;;;;;32.00;99916.00;;;;5089102;28;20545;-76
2022/01/31 12:53:35;;;;;;;0.57;0.40;;;;;32.20;99923.00;;;;5088823;28;20063;-76
2022/01/31 12:56:37;;;;;;;0.00;0.00;;;;;32.10;99924.00;;;;5089932;28;20574;-78
2022/01/31 12:59:15;;;;;;;0.00;0.00;;;;;32.90;99926.00;;;;5088296;28;20044;-79
2022/01/31 13:01:50;;;;;;;0.00;0.00;;;;;32.20;99936.00;;;;5090733;28;20047;-78
2022/01/31 13:04:22;;;;;;;2.40;0.10;;;;;32.70;99941.00;;;;5089960;28;20036;-77
2022/01/31 13:07:00;;;;;;;0.00;0.00;;;;;32.50;99935.00;;;;5089506;28;20040;-79
2022/01/31 13:09:50;;;;;;;0.00;0.00;;;;;32.90;99935.00;;;;5089480;28;20520;-79
2022/01/31 13:12:22;;;;;;;0.00;0.00;;;;;32.80;99926.00;;;;5089842;28;20044;-78
2022/01/31 13:14:52;;;;;;;0.00;0.00;;;;;32.50;99925.00;;;;5089837;28;20052;-77
2022/01/31 13:17:25;;;;;;;0.10;0.00;;;;;33.00;99921.00;;;;5089787;28;20485;-76
2022/01/31 13:19:59;;;;;;;0.00;0.00;;;;;32.50;99915.00;;;;5089771;28;20042;-78
2022/01/31 13:22:39;;;;;;;0.00;0.00;;;;;32.60;99917.00;;;;5088753;28;20127;-76
2022/01/31 13:25:10;;;;;;;;;;;;;32.90;99923.00;;;;5089316;28;20077;-76